Time;durP1;ratioP1;P1;durP2;ratioP2;P2;SDS_P1;SDS_P2;PMS_P1;PMS_P2;Temp;Humidity;BMP_temperature;BMP_pressure;BME280_temperature;BME280_humidity;BME280_pressure;Samples;Min_cycle;Max_cycle;Signal;HPM_P1;HPM_P2
2023/09/06 00:02:25;;;;;;;0.10;0.10;;;;;;;;;;5075138;28;20158;-44
2023/09/06 00:04:50;;;;;;;0.10;0.10;;;;;;;;;;5076347;28;20409;-43
2023/09/06 00:07:16;;;;;;;0.10;0.10;;;;;;;;;;5094350;28;20048;-43
2023/09/06 00:09:42;;;;;;;0.20;0.20;;;;;;;;;;5075013;28;20124;-44
2023/09/06 00:12:07;;;;;;;0.10;0.10;;;;;;;;;;5074227;28;20055;-43
2023/09/06 00:14:35;;;;;;;0.10;0.10;;;;;;;;;;5074629;28;20052;-44
2023/09/06 00:17:02;;;;;;;0.10;0.10;;;;;;;;;;5094747;28;20040;-43
2023/09/06 00:19:29;;;;;;;0.10;0.10;;;;;;;;;;5076252;28;20066;-43
2023/09/06 00:21:54;;;;;;;0.10;0.10;;;;;;;;;;5074904;28;20052;-45
2023/09/06 00:24:20;;;;;;;0.10;0.10;;;;;;;;;;5074454;28;20090;-44
2023/09/06 00:26:46;;;;;;;0.17;0.17;;;;;;;;;;5091007;28;20051;-43
2023/09/06 00:29:11;;;;;;;0.10;0.10;;;;;;;;;;5093987;28;20696;-43
2023/09/06 00:31:37;;;;;;;0.10;0.10;;;;;;;;;;5089891;28;20485;-43
2023/09/06 00:34:03;;;;;;;0.10;0.10;;;;;;;;;;5090973;28;20166;-44
2023/09/06 00:36:29;;;;;;;0.10;0.10;;;;;;;;;;5093002;28;20078;-44
2023/09/06 00:38:56;;;;;;;0.20;0.20;;;;;;;;;;5094213;28;20104;-44
2023/09/06 00:41:22;;;;;;;0.10;0.10;;;;;;;;;;5094038;28;20051;-43
2023/09/06 00:43:48;;;;;;;0.10;0.10;;;;;;;;;;5094639;28;20632;-45
2023/09/06 00:46:14;;;;;;;0.20;0.20;;;;;;;;;;5093883;28;20064;-45
2023/09/06 00:48:40;;;;;;;0.10;0.10;;;;;;;;;;5094087;28;20039;-45
2023/09/06 00:51:07;;;;;;;0.10;0.10;;;;;;;;;;5094665;28;20052;-44
2023/09/06 00:53:32;;;;;;;0.20;0.20;;;;;;;;;;5094701;28;20829;-43
2023/09/06 00:55:59;;;;;;;0.15;0.15;;;;;;;;;;5094544;28;20446;-44
2023/09/06 00:58:26;;;;;;;0.10;0.10;;;;;;;;;;5094513;28;20047;-44
2023/09/06 01:00:52;;;;;;;0.10;0.10;;;;;;;;;;5095082;28;20047;-44
2023/09/06 01:03:18;;;;;;;0.10;0.10;;;;;;;;;;5094590;28;20078;-44
2023/09/06 01:05:46;;;;;;;0.10;0.10;;;;;;;;;;5094032;28;20347;-44
2023/09/06 01:08:18;;;;;;;0.15;0.15;;;;;;;;;;5094095;28;20039;-43
2023/09/06 01:10:44;;;;;;;0.10;0.10;;;;;;;;;;5076851;28;20554;-45
2023/09/06 01:13:09;;;;;;;0.10;0.10;;;;;;;;;;5095144;28;20055;-45
2023/09/06 01:15:36;;;;;;;0.10;0.10;;;;;;;;;;5094227;28;20044;-44
2023/09/06 01:18:04;;;;;;;0.10;0.10;;;;;;;;;;5094507;28;20379;-44
2023/09/06 01:20:33;;;;;;;0.10;0.10;;;;;;;;;;5094829;28;20075;-43
2023/09/06 01:23:05;;;;;;;0.10;0.10;;;;;;;;;;5094572;28;20443;-43
2023/09/06 01:25:31;;;;;;;0.10;0.10;;;;;;;;;;5093781;28;20075;-43
2023/09/06 01:27:57;;;;;;;0.10;0.10;;;;;;;;;;5092460;28;20050;-45
2023/09/06 01:30:28;;;;;;;0.10;0.10;;;;;;;;;;5092190;28;20050;-43
2023/09/06 01:32:53;;;;;;;0.13;0.13;;;;;;;;;;5092994;27;20036;-45
2023/09/06 01:35:19;;;;;;;0.10;0.10;;;;;;;;;;5092269;28;20420;-43
2023/09/06 01:37:44;;;;;;;0.10;0.10;;;;;;;;;;5093132;28;20142;-43
2023/09/06 01:40:17;;;;;;;0.10;0.10;;;;;;;;;;5092717;28;20385;-43
2023/09/06 01:42:44;;;;;;;0.10;0.10;;;;;;;;;;5092623;28;20341;-43
2023/09/06 01:45:09;;;;;;;0.10;0.10;;;;;;;;;;5093727;28;20229;-43
2023/09/06 01:47:35;;;;;;;0.10;0.10;;;;;;;;;;5091606;28;20303;-45
2023/09/06 01:50:01;;;;;;;0.10;0.10;;;;;;;;;;5092623;28;20519;-43
2023/09/06 01:52:26;;;;;;;0.10;0.10;;;;;;;;;;5097217;28;20055;-44
2023/09/06 01:54:52;;;;;;;0.10;0.10;;;;;;;;;;5096738;28;20050;-43
2023/09/06 01:57:17;;;;;;;0.10;0.10;;;;;;;;;;5096367;28;20553;-44
2023/09/06 01:59:43;;;;;;;0.10;0.10;;;;;;;;;;5076593;28;20539;-43
2023/09/06 02:02:08;;;;;;;0.10;0.10;;;;;;;;;;5076575;28;20483;-45
2023/09/06 02:04:34;;;;;;;0.13;0.13;;;;;;;;;;5075522;28;20051;-44
2023/09/06 02:07:02;;;;;;;0.10;0.10;;;;;;;;;;5092339;28;20047;-44
2023/09/06 02:09:28;;;;;;;;;;;;;;;;;;5077250;28;20148;-43
2023/09/06 02:11:55;;;;;;;0.10;0.10;;;;;;;;;;5075944;28;20352;-44
2023/09/06 02:14:21;;;;;;;0.10;0.10;;;;;;;;;;5076372;28;20438;-44
2023/09/06 02:16:47;;;;;;;0.10;0.10;;;;;;;;;;5090018;28;20349;-43
2023/09/06 02:19:12;;;;;;;0.10;0.10;;;;;;;;;;5080273;28;20404;-45
2023/09/06 02:21:39;;;;;;;0.10;0.10;;;;;;;;;;5076529;28;20455;-43
2023/09/06 02:24:05;;;;;;;0.10;0.10;;;;;;;;;;5076215;28;20068;-43
2023/09/06 02:26:31;;;;;;;0.10;0.10;;;;;;;;;;5087845;28;20414;-43
2023/09/06 02:28:56;;;;;;;0.10;0.10;;;;;;;;;;5096355;28;20391;-43
2023/09/06 02:31:22;;;;;;;0.20;0.20;;;;;;;;;;5095166;28;20270;-43
2023/09/06 02:33:48;;;;;;;0.10;0.10;;;;;;;;;;5096336;28;20520;-43
2023/09/06 02:36:13;;;;;;;0.10;0.10;;;;;;;;;;5103956;28;20100;-44
2023/09/06 02:38:39;;;;;;;0.10;0.10;;;;;;;;;;5096029;28;20048;-43
2023/09/06 02:41:04;;;;;;;0.10;0.10;;;;;;;;;;5096530;28;20486;-44
2023/09/06 02:43:30;;;;;;;0.10;0.10;;;;;;;;;;5095609;28;20066;-43
2023/09/06 02:45:55;;;;;;;0.10;0.10;;;;;;;;;;5096461;28;20519;-43
2023/09/06 02:48:23;;;;;;;0.10;0.10;;;;;;;;;;5097067;28;20120;-44
2023/09/06 02:50:48;;;;;;;0.10;0.10;;;;;;;;;;5096191;28;20492;-44
2023/09/06 02:53:19;;;;;;;0.10;0.10;;;;;;;;;;5096736;28;20543;-43
2023/09/06 02:55:47;;;;;;;0.10;0.10;;;;;;;;;;5096328;28;20484;-43
2023/09/06 02:58:15;;;;;;;0.10;0.10;;;;;;;;;;5087824;28;20059;-43
2023/09/06 03:00:43;;;;;;;0.10;0.10;;;;;;;;;;5075390;28;20481;-43
2023/09/06 03:03:08;;;;;;;0.10;0.10;;;;;;;;;;5076107;28;20431;-44
2023/09/06 03:05:35;;;;;;;0.10;0.10;;;;;;;;;;5078308;28;20459;-43
2023/09/06 03:08:00;;;;;;;0.10;0.10;;;;;;;;;;5089707;28;20044;-44
2023/09/06 03:10:27;;;;;;;0.10;0.10;;;;;;;;;;5075792;28;20412;-43
2023/09/06 03:12:54;;;;;;;0.10;0.10;;;;;;;;;;5076682;28;20117;-43
2023/09/06 03:15:22;;;;;;;0.10;0.10;;;;;;;;;;5075969;28;20050;-43
2023/09/06 03:17:51;;;;;;;0.10;0.10;;;;;;;;;;5079810;28;20508;-44
2023/09/06 03:20:48;;;;;;;0.10;0.10;;;;;;;;;;5096276;28;20051;-43
2023/09/06 03:23:16;;;;;;;0.10;0.10;;;;;;;;;;5080333;28;20043;-43
2023/09/06 03:25:43;;;;;;;0.10;0.10;;;;;;;;;;5095315;28;20096;-43
2023/09/06 03:28:08;;;;;;;0.10;0.10;;;;;;;;;;5095667;28;20055;-43
2023/09/06 03:30:34;;;;;;;0.10;0.10;;;;;;;;;;5096253;28;20051;-43
2023/09/06 03:33:00;;;;;;;0.10;0.10;;;;;;;;;;5094190;28;20810;-43
2023/09/06 03:35:25;;;;;;;0.10;0.10;;;;;;;;;;5106116;28;20511;-44
2023/09/06 03:37:51;;;;;;;0.10;0.10;;;;;;;;;;5095325;28;20557;-43
2023/09/06 03:40:49;;;;;;;0.10;0.10;;;;;;;;;;5095169;28;20455;-44
2023/09/06 03:43:04;;;;;;;0.10;0.10;;;;;;;;;;5094999;28;20050;-43
2023/09/06 03:45:31;;;;;;;0.10;0.10;;;;;;;;;;5095600;28;20081;-44
2023/09/06 03:47:57;;;;;;;0.10;0.10;;;;;;;;;;5089744;28;20485;-43
2023/09/06 03:50:23;;;;;;;0.10;0.10;;;;;;;;;;5075902;28;20429;-45
2023/09/06 03:52:50;;;;;;;0.10;0.10;;;;;;;;;;5084664;28;20048;-45
2023/09/06 03:55:16;;;;;;;0.10;0.10;;;;;;;;;;5096119;28;20054;-43
2023/09/06 03:57:42;;;;;;;0.10;0.10;;;;;;;;;;5091402;28;20482;-44
2023/09/06 04:00:41;;;;;;;0.10;0.10;;;;;;;;;;5075511;28;20048;-44
2023/09/06 04:02:54;;;;;;;0.10;0.10;;;;;;;;;;5060641;28;20252;-43
2023/09/06 04:05:22;;;;;;;0.10;0.10;;;;;;;;;;5075657;28;20048;-44
2023/09/06 04:07:49;;;;;;;0.10;0.10;;;;;;;;;;5093780;28;20048;-43
2023/09/06 04:10:16;;;;;;;0.10;0.10;;;;;;;;;;5094562;28;20039;-44
2023/09/06 04:12:43;;;;;;;0.10;0.10;;;;;;;;;;5094871;28;20549;-43
2023/09/06 04:15:12;;;;;;;0.10;0.10;;;;;;;;;;5095191;28;20055;-44
2023/09/06 04:17:40;;;;;;;0.10;0.10;;;;;;;;;;5094898;28;20303;-44
2023/09/06 04:20:18;;;;;;;0.10;0.10;;;;;;;;;;5095876;28;20040;-43
2023/09/06 04:22:45;;;;;;;;;;;;;;;;;;5096577;28;20067;-43
2023/09/06 04:25:11;;;;;;;0.10;0.10;;;;;;;;;;5095616;28;19920;-43
2023/09/06 04:27:38;;;;;;;0.10;0.10;;;;;;;;;;5095065;28;20083;-43
2023/09/06 04:30:03;;;;;;;0.10;0.10;;;;;;;;;;5094867;28;20471;-44
2023/09/06 04:32:29;;;;;;;0.10;0.10;;;;;;;;;;5094083;28;20515;-44
2023/09/06 04:34:55;;;;;;;0.10;0.10;;;;;;;;;;5093942;28;20488;-43
2023/09/06 04:37:20;;;;;;;0.10;0.10;;;;;;;;;;5093996;28;20039;-44
2023/09/06 04:39:46;;;;;;;0.10;0.10;;;;;;;;;;5079000;28;20047;-45
2023/09/06 04:42:11;;;;;;;0.10;0.10;;;;;;;;;;5095837;28;20055;-44
2023/09/06 04:44:37;;;;;;;0.10;0.10;;;;;;;;;;5095128;28;20051;-43
2023/09/06 04:47:03;;;;;;;0.10;0.10;;;;;;;;;;5094684;28;20043;-44
2023/09/06 04:49:28;;;;;;;0.10;0.10;;;;;;;;;;5076017;28;20083;-43
2023/09/06 04:51:54;;;;;;;0.10;0.10;;;;;;;;;;5073752;28;20048;-44
2023/09/06 04:54:21;;;;;;;0.10;0.10;;;;;;;;;;5080853;28;20100;-43
2023/09/06 04:56:46;;;;;;;0.10;0.10;;;;;;;;;;5094514;28;20138;-44
2023/09/06 04:59:12;;;;;;;0.10;0.10;;;;;;;;;;5077816;28;20043;-44
2023/09/06 05:01:38;;;;;;;0.10;0.10;;;;;;;;;;5073787;28;20549;-43
2023/09/06 05:04:03;;;;;;;0.10;0.10;;;;;;;;;;5073499;28;20058;-43
2023/09/06 05:06:29;;;;;;;0.10;0.10;;;;;;;;;;5079050;28;20048;-45
2023/09/06 05:08:54;;;;;;;0.10;0.10;;;;;;;;;;5079714;28;20337;-44
2023/09/06 05:11:20;;;;;;;0.10;0.10;;;;;;;;;;5073159;28;20393;-43
2023/09/06 05:13:45;;;;;;;0.10;0.10;;;;;;;;;;5073208;28;20451;-44
2023/09/06 05:16:11;;;;;;;0.10;0.10;;;;;;;;;;5075888;28;20240;-44
2023/09/06 05:18:36;;;;;;;0.10;0.10;;;;;;;;;;5081502;28;20051;-43
2023/09/06 05:21:05;;;;;;;0.10;0.10;;;;;;;;;;5081874;28;20044;-44
2023/09/06 05:23:32;;;;;;;0.10;0.10;;;;;;;;;;5092504;28;20142;-44
2023/09/06 05:25:58;;;;;;;0.10;0.10;;;;;;;;;;5092942;28;20075;-44
2023/09/06 05:28:23;;;;;;;0.10;0.10;;;;;;;;;;5086186;28;20055;-49
2023/09/06 05:30:49;;;;;;;0.10;0.10;;;;;;;;;;5087373;28;20051;-44
2023/09/06 05:33:15;;;;;;;0.10;0.10;;;;;;;;;;5089460;28;20043;-44
2023/09/06 05:35:41;;;;;;;0.10;0.10;;;;;;;;;;5088868;28;20047;-45
2023/09/06 05:38:09;;;;;;;0.10;0.10;;;;;;;;;;5071377;28;20177;-44
2023/09/06 05:40:35;;;;;;;0.10;0.10;;;;;;;;;;5078052;28;20518;-44
2023/09/06 05:43:01;;;;;;;0.10;0.10;;;;;;;;;;5089865;28;20058;-44
2023/09/06 05:45:26;;;;;;;0.10;0.10;;;;;;;;;;5077155;28;20071;-45
2023/09/06 05:47:52;;;;;;;0.10;0.10;;;;;;;;;;5081254;28;20085;-43
2023/09/06 05:50:19;;;;;;;0.10;0.10;;;;;;;;;;5072852;28;20742;-45
2023/09/06 05:52:44;;;;;;;0.10;0.10;;;;;;;;;;5071201;28;20412;-44
2023/09/06 05:55:10;;;;;;;0.10;0.10;;;;;;;;;;5066274;28;20052;-44
2023/09/06 05:57:36;;;;;;;0.10;0.10;;;;;;;;;;5073228;28;20190;-45
2023/09/06 06:00:02;;;;;;;0.10;0.10;;;;;;;;;;5067890;28;20454;-44
2023/09/06 06:02:29;;;;;;;0.10;0.10;;;;;;;;;;5068305;28;20136;-44
2023/09/06 06:04:56;;;;;;;0.10;0.10;;;;;;;;;;5072013;28;20883;-44
2023/09/06 06:07:21;;;;;;;0.10;0.10;;;;;;;;;;5069792;28;20036;-43
2023/09/06 06:09:48;;;;;;;0.10;0.10;;;;;;;;;;5070736;28;20129;-44
2023/09/06 06:12:14;;;;;;;0.10;0.10;;;;;;;;;;5072594;28;20507;-44
2023/09/06 06:14:40;;;;;;;0.10;0.10;;;;;;;;;;5079339;28;20050;-44
2023/09/06 06:17:06;;;;;;;0.10;0.10;;;;;;;;;;5077288;28;20040;-44
2023/09/06 06:19:33;;;;;;;0.10;0.10;;;;;;;;;;5079649;28;20399;-44
2023/09/06 06:22:01;;;;;;;0.10;0.10;;;;;;;;;;5082506;28;20054;-44
2023/09/06 06:24:26;;;;;;;;;;;;;;;;;;5074761;28;20069;-45
2023/09/06 06:26:52;;;;;;;0.10;0.10;;;;;;;;;;5081871;28;19924;-45
2023/09/06 06:29:17;;;;;;;0.10;0.10;;;;;;;;;;5081110;28;20044;-43
2023/09/06 06:31:44;;;;;;;0.10;0.10;;;;;;;;;;5080406;28;20450;-45
2023/09/06 06:34:10;;;;;;;0.10;0.10;;;;;;;;;;5084294;28;20515;-44
2023/09/06 06:36:36;;;;;;;0.10;0.10;;;;;;;;;;5082022;28;20062;-43
2023/09/06 06:39:01;;;;;;;0.10;0.10;;;;;;;;;;5087442;28;20048;-43
2023/09/06 06:41:27;;;;;;;0.10;0.10;;;;;;;;;;5078688;28;20054;-44
2023/09/06 06:43:52;;;;;;;0.10;0.10;;;;;;;;;;5083408;28;20047;-44
2023/09/06 06:46:26;;;;;;;0.10;0.10;;;;;;;;;;5080963;28;20314;-45
2023/09/06 06:48:52;;;;;;;0.10;0.10;;;;;;;;;;5080603;28;20072;-44
2023/09/06 06:51:18;;;;;;;0.10;0.10;;;;;;;;;;5086928;28;20645;-44
2023/09/06 06:53:43;;;;;;;0.10;0.10;;;;;;;;;;5076566;28;20051;-45
2023/09/06 06:56:09;;;;;;;0.10;0.10;;;;;;;;;;5078694;28;20485;-48
2023/09/06 06:58:34;;;;;;;0.10;0.10;;;;;;;;;;5075857;28;20404;-44
2023/09/06 07:01:00;;;;;;;0.10;0.10;;;;;;;;;;5085397;28;20539;-44
2023/09/06 07:03:26;;;;;;;0.20;0.20;;;;;;;;;;5071155;28;20763;-44
2023/09/06 07:05:52;;;;;;;0.10;0.10;;;;;;;;;;5067665;28;20051;-44
2023/09/06 07:08:17;;;;;;;0.10;0.10;;;;;;;;;;5063030;28;20047;-45
2023/09/06 07:10:43;;;;;;;0.10;0.10;;;;;;;;;;5052324;28;20047;-43
2023/09/06 07:13:09;;;;;;;0.10;0.10;;;;;;;;;;5070391;28;20047;-44
2023/09/06 07:15:35;;;;;;;0.10;0.10;;;;;;;;;;5076536;28;20055;-44
2023/09/06 07:18:04;;;;;;;0.10;0.10;;;;;;;;;;5069487;28;20055;-43
2023/09/06 07:20:30;;;;;;;0.10;0.10;;;;;;;;;;5072492;28;20043;-45
2023/09/06 07:22:55;;;;;;;0.10;0.10;;;;;;;;;;5074748;28;20051;-45
2023/09/06 07:25:21;;;;;;;0.10;0.10;;;;;;;;;;5075113;28;20389;-43
2023/09/06 07:27:47;;;;;;;0.10;0.10;;;;;;;;;;5084207;28;20420;-44
2023/09/06 07:30:12;;;;;;;0.10;0.10;;;;;;;;;;5081271;28;20624;-43
2023/09/06 07:32:38;;;;;;;0.17;0.17;;;;;;;;;;5075495;28;20048;-43
2023/09/06 07:35:05;;;;;;;0.10;0.10;;;;;;;;;;5080229;28;20081;-45
2023/09/06 07:37:31;;;;;;;0.10;0.10;;;;;;;;;;5075733;28;20047;-43
2023/09/06 07:39:59;;;;;;;0.10;0.10;;;;;;;;;;5086811;28;20059;-45
2023/09/06 07:42:25;;;;;;;0.10;0.10;;;;;;;;;;5080355;28;20120;-43
2023/09/06 07:44:51;;;;;;;0.17;0.17;;;;;;;;;;5085160;28;20047;-45
2023/09/06 07:47:17;;;;;;;0.10;0.10;;;;;;;;;;5078205;28;20070;-46
2023/09/06 07:49:42;;;;;;;0.10;0.10;;;;;;;;;;5063323;28;20052;-43
2023/09/06 07:52:08;;;;;;;0.10;0.10;;;;;;;;;;5079867;28;20055;-44
2023/09/06 07:54:34;;;;;;;0.20;0.20;;;;;;;;;;5084181;28;20082;-45
2023/09/06 07:57:00;;;;;;;0.10;0.10;;;;;;;;;;5080937;28;20494;-44
2023/09/06 07:59:25;;;;;;;0.10;0.10;;;;;;;;;;5076316;28;20048;-43
2023/09/06 08:01:51;;;;;;;0.10;0.10;;;;;;;;;;5078708;28;20084;-44
2023/09/06 08:04:19;;;;;;;0.10;0.10;;;;;;;;;;5075257;28;20483;-44
2023/09/06 08:06:46;;;;;;;0.10;0.10;;;;;;;;;;5072338;28;20031;-43
2023/09/06 08:09:12;;;;;;;0.17;0.17;;;;;;;;;;5069273;28;20391;-44
2023/09/06 08:11:37;;;;;;;0.10;0.10;;;;;;;;;;5070005;28;20066;-43
2023/09/06 08:14:03;;;;;;;0.13;0.13;;;;;;;;;;5076585;28;20047;-44
2023/09/06 08:16:29;;;;;;;0.10;0.10;;;;;;;;;;5069359;28;20051;-44
2023/09/06 08:18:56;;;;;;;0.10;0.10;;;;;;;;;;5081638;28;20494;-45
2023/09/06 08:21:21;;;;;;;0.10;0.10;;;;;;;;;;5076917;28;20059;-44
2023/09/06 08:23:47;;;;;;;0.17;0.17;;;;;;;;;;5072692;28;20043;-44
2023/09/06 08:26:13;;;;;;;0.10;0.10;;;;;;;;;;5075800;28;20044;-43
2023/09/06 08:28:39;;;;;;;0.10;0.10;;;;;;;;;;5073503;28;20043;-45
2023/09/06 08:31:05;;;;;;;0.10;0.10;;;;;;;;;;5064516;28;20059;-44
2023/09/06 08:33:32;;;;;;;0.10;0.10;;;;;;;;;;5065259;28;20074;-44
2023/09/06 08:35:58;;;;;;;0.10;0.10;;;;;;;;;;5061375;28;20044;-44
2023/09/06 08:38:24;;;;;;;0.10;0.10;;;;;;;;;;5054130;28;20040;-43
2023/09/06 08:40:50;;;;;;;0.10;0.10;;;;;;;;;;5060644;28;20055;-43
2023/09/06 08:43:18;;;;;;;0.10;0.10;;;;;;;;;;5069598;28;20047;-44
2023/09/06 08:45:43;;;;;;;;;;;;;;;;;;5086196;28;20051;-43
2023/09/06 08:48:10;;;;;;;0.10;0.10;;;;;;;;;;5080046;28;19993;-44
2023/09/06 08:50:37;;;;;;;0.10;0.10;;;;;;;;;;5081305;28;20480;-43
2023/09/06 08:53:03;;;;;;;0.10;0.10;;;;;;;;;;5077735;28;20085;-43
2023/09/06 08:55:30;;;;;;;0.17;0.17;;;;;;;;;;5080209;28;20094;-43
2023/09/06 08:57:56;;;;;;;0.10;0.10;;;;;;;;;;5055950;28;20645;-44
2023/09/06 09:00:23;;;;;;;0.10;0.10;;;;;;;;;;5067935;28;20736;-43
2023/09/06 09:02:50;;;;;;;0.10;0.10;;;;;;;;;;5078841;28;20088;-44
2023/09/06 09:05:16;;;;;;;0.10;0.10;;;;;;;;;;5083009;28;20106;-46
2023/09/06 09:07:49;;;;;;;0.20;0.20;;;;;;;;;;5077406;28;20054;-44
2023/09/06 09:10:15;;;;;;;0.10;0.10;;;;;;;;;;5082011;28;20128;-44
2023/09/06 09:12:41;;;;;;;0.10;0.10;;;;;;;;;;5084027;28;20129;-43
2023/09/06 09:15:07;;;;;;;0.10;0.10;;;;;;;;;;5083205;28;20052;-44
2023/09/06 09:17:50;;;;;;;0.10;0.10;;;;;;;;;;5085180;28;20067;-50
2023/09/06 09:20:27;;;;;;;0.10;0.10;;;;;;;;;;5085718;28;20055;-45
2023/09/06 09:22:52;;;;;;;0.20;0.20;;;;;;;;;;5088072;28;20051;-47
2023/09/06 09:25:23;;;;;;;0.10;0.10;;;;;;;;;;5084763;28;20129;-44
2023/09/06 09:27:54;;;;;;;0.10;0.10;;;;;;;;;;5067498;28;20047;-43
2023/09/06 09:30:19;;;;;;;0.20;0.20;;;;;;;;;;5077507;28;20104;-45
2023/09/06 09:32:45;;;;;;;0.10;0.10;;;;;;;;;;5081824;28;20047;-46
2023/09/06 09:35:12;;;;;;;0.10;0.10;;;;;;;;;;5075162;28;20055;-44
2023/09/06 09:37:38;;;;;;;0.10;0.10;;;;;;;;;;5053742;28;20056;-44
2023/09/06 09:40:32;;;;;;;0.10;0.10;;;;;;;;;;5075093;28;20071;-43
2023/09/06 09:43:17;;;;;;;0.20;0.20;;;;;;;;;;5048851;28;20052;-45
2023/09/06 09:45:43;;;;;;;0.10;0.10;;;;;;;;;;5067503;28;20074;-43
2023/09/06 09:48:10;;;;;;;0.10;0.10;;;;;;;;;;5046755;28;20048;-43
2023/09/06 09:50:36;;;;;;;0.10;0.10;;;;;;;;;;5075444;28;20048;-43
2023/09/06 09:53:04;;;;;;;0.10;0.10;;;;;;;;;;5079646;28;20569;-44
2023/09/06 09:55:46;;;;;;;0.10;0.10;;;;;;;;;;5077309;28;20051;-44
2023/09/06 09:58:12;;;;;;;0.10;0.10;;;;;;;;;;5081458;28;20645;-43
2023/09/06 10:00:41;;;;;;;0.10;0.10;;;;;;;;;;5080042;28;20175;-44
2023/09/06 10:03:08;;;;;;;0.10;0.10;;;;;;;;;;5078660;28;20480;-44
2023/09/06 10:05:35;;;;;;;0.10;0.10;;;;;;;;;;5083095;28;20761;-45
2023/09/06 10:08:01;;;;;;;0.10;0.10;;;;;;;;;;5072363;28;20398;-44
2023/09/06 10:10:27;;;;;;;0.10;0.10;;;;;;;;;;5080923;28;20101;-43
2023/09/06 10:12:53;;;;;;;0.10;0.10;;;;;;;;;;5083972;28;20384;-43
2023/09/06 10:15:20;;;;;;;0.20;0.20;;;;;;;;;;5084637;28;20153;-43
2023/09/06 10:17:47;;;;;;;0.10;0.10;;;;;;;;;;5080969;28;20097;-44
2023/09/06 10:20:13;;;;;;;0.20;0.20;;;;;;;;;;5082250;28;20043;-44
2023/09/06 10:22:43;;;;;;;0.10;0.10;;;;;;;;;;5085999;28;20039;-44
2023/09/06 10:25:10;;;;;;;0.13;0.13;;;;;;;;;;5085833;28;20428;-44
2023/09/06 10:27:44;;;;;;;0.10;0.10;;;;;;;;;;5090124;28;20364;-46
2023/09/06 10:30:11;;;;;;;0.10;0.10;;;;;;;;;;5088866;28;20035;-44
2023/09/06 10:32:39;;;;;;;0.10;0.10;;;;;;;;;;5096913;28;20120;-45
2023/09/06 10:35:25;;;;;;;0.10;0.10;;;;;;;;;;5088152;28;20657;-49
2023/09/06 10:38:11;;;;;;;0.10;0.10;;;;;;;;;;5057493;28;20055;-43
2023/09/06 10:43:28;;;;;;;0.10;0.10;;;;;;;;;;5125996;27;20386;-43
2023/09/06 10:45:55;;;;;;;0.10;0.10;;;;;;;;;;5087389;27;20128;-42
2023/09/06 10:48:21;;;;;;;0.20;0.20;;;;;;;;;;5089871;27;20047;-43
2023/09/06 10:51:06;;;;;;;0.13;0.13;;;;;;;;;;5119217;27;21194;-44
2023/09/06 10:53:34;;;;;;;0.10;0.10;;;;;;;;;;5097786;27;20038;-42
2023/09/06 10:56:01;;;;;;;0.10;0.10;;;;;;;;;;5113346;27;20051;-43
2023/09/06 10:58:29;;;;;;;0.10;0.10;;;;;;;;;;5125268;27;20035;-43
2023/09/06 11:01:13;;;;;;;0.10;0.10;;;;;;;;;;5103007;27;20059;-43
2023/09/06 11:03:40;;;;;;;0.10;0.10;;;;;;;;;;5120087;27;20876;-43
2023/09/06 11:06:05;;;;;;;0.10;0.10;;;;;;;;;;5115854;27;20039;-45
2023/09/06 11:08:32;;;;;;;0.10;0.10;;;;;;;;;;5112899;27;20317;-43
2023/09/06 11:11:00;;;;;;;0.10;0.10;;;;;;;;;;5115333;27;20122;-45
2023/09/06 11:13:28;;;;;;;0.10;0.10;;;;;;;;;;5097495;27;20088;-44
2023/09/06 11:15:53;;;;;;;;;;;;;;;;;;5111262;27;20047;-44
2023/09/06 11:18:19;;;;;;;0.10;0.10;;;;;;;;;;5122442;27;19949;-45
2023/09/06 11:20:47;;;;;;;0.15;0.15;;;;;;;;;;5108829;27;20047;-44
2023/09/06 11:23:12;;;;;;;0.10;0.10;;;;;;;;;;5103530;27;20476;-44
2023/09/06 11:25:38;;;;;;;0.10;0.10;;;;;;;;;;5124018;27;20546;-44
2023/09/06 11:28:19;;;;;;;0.10;0.10;;;;;;;;;;5107173;27;20058;-43
2023/09/06 11:30:47;;;;;;;0.10;0.10;;;;;;;;;;5118257;27;20696;-44
2023/09/06 11:33:15;;;;;;;0.10;0.10;;;;;;;;;;5116348;27;20043;-45
2023/09/06 11:35:45;;;;;;;0.10;0.10;;;;;;;;;;5118304;27;20355;-45
2023/09/06 11:38:12;;;;;;;0.10;0.10;;;;;;;;;;5115716;27;20086;-44
2023/09/06 11:40:38;;;;;;;0.10;0.10;;;;;;;;;;5117322;27;20218;-44
2023/09/06 11:43:04;;;;;;;0.10;0.10;;;;;;;;;;5113298;27;20383;-43
2023/09/06 11:45:32;;;;;;;0.10;0.10;;;;;;;;;;5118802;27;20353;-43
2023/09/06 11:48:04;;;;;;;0.40;0.22;;;;;;;;;;5124205;27;20494;-44
2023/09/06 11:50:30;;;;;;;0.20;0.20;;;;;;;;;;5118023;27;20094;-43
2023/09/06 11:53:01;;;;;;;0.10;0.10;;;;;;;;;;5114467;27;20131;-46
2023/09/06 11:55:30;;;;;;;0.10;0.10;;;;;;;;;;5103740;28;20115;-44
2023/09/06 11:57:57;;;;;;;0.10;0.10;;;;;;;;;;5104996;28;20504;-43
2023/09/06 12:00:35;;;;;;;0.10;0.10;;;;;;;;;;5094305;28;20074;-43
2023/09/06 12:03:08;;;;;;;0.10;0.10;;;;;;;;;;5116369;28;20061;-44
2023/09/06 12:05:42;;;;;;;0.10;0.10;;;;;;;;;;5099520;28;20050;-44
2023/09/06 12:08:19;;;;;;;0.13;0.13;;;;;;;;;;5106888;28;20535;-43
2023/09/06 12:10:50;;;;;;;0.10;0.10;;;;;;;;;;5095211;28;20506;-44
2023/09/06 12:13:17;;;;;;;0.10;0.10;;;;;;;;;;5105183;28;20051;-44
2023/09/06 12:15:44;;;;;;;0.10;0.10;;;;;;;;;;5105078;28;20047;-43
2023/09/06 12:18:09;;;;;;;0.10;0.10;;;;;;;;;;5106485;27;20568;-43
2023/09/06 12:20:35;;;;;;;0.10;0.10;;;;;;;;;;5101167;28;20052;-48
2023/09/06 12:23:04;;;;;;;0.10;0.10;;;;;;;;;;5099527;28;20078;-44
2023/09/06 12:25:29;;;;;;;0.10;0.10;;;;;;;;;;5086806;28;20043;-43
2023/09/06 12:27:55;;;;;;;0.10;0.10;;;;;;;;;;5105343;28;20043;-43
2023/09/06 12:30:21;;;;;;;0.10;0.10;;;;;;;;;;5108224;27;20102;-44
2023/09/06 12:32:46;;;;;;;0.10;0.10;;;;;;;;;;5099609;28;20046;-48
2023/09/06 12:35:12;;;;;;;0.20;0.20;;;;;;;;;;5087491;28;20100;-46
2023/09/06 12:37:41;;;;;;;0.10;0.10;;;;;;;;;;5094677;28;20538;-41
2023/09/06 12:40:12;;;;;;;0.10;0.10;;;;;;;;;;5092390;28;20042;-50
2023/09/06 12:42:40;;;;;;;0.20;0.20;;;;;;;;;;5095583;28;20573;-54
2023/09/06 12:45:07;;;;;;;0.10;0.10;;;;;;;;;;5096682;28;20047;-50
2023/09/06 12:47:33;;;;;;;0.10;0.10;;;;;;;;;;5098449;28;20099;-47
2023/09/06 12:49:59;;;;;;;0.10;0.10;;;;;;;;;;5103990;28;20768;-48
2023/09/06 12:52:25;;;;;;;0.13;0.13;;;;;;;;;;5092902;28;20043;-46
2023/09/06 12:54:51;;;;;;;0.10;0.10;;;;;;;;;;5093727;28;20050;-46
2023/09/06 12:57:17;;;;;;;0.13;0.13;;;;;;;;;;5095329;28;20274;-43
2023/09/06 12:59:42;;;;;;;0.10;0.10;;;;;;;;;;5107235;28;20039;-43
2023/09/06 13:02:08;;;;;;;0.17;0.17;;;;;;;;;;5098191;28;20043;-43
2023/09/06 13:04:33;;;;;;;0.10;0.10;;;;;;;;;;5107187;28;20108;-43
2023/09/06 13:06:59;;;;;;;0.10;0.10;;;;;;;;;;5103513;28;20050;-44
2023/09/06 13:09:25;;;;;;;0.10;0.10;;;;;;;;;;5104374;28;20051;-44
2023/09/06 13:11:50;;;;;;;0.10;0.10;;;;;;;;;;5102048;28;20047;-44
2023/09/06 13:14:16;;;;;;;0.10;0.10;;;;;;;;;;5103736;28;20047;-42
2023/09/06 13:16:41;;;;;;;0.10;0.10;;;;;;;;;;5116894;27;20059;-42
2023/09/06 13:19:09;;;;;;;0.20;0.20;;;;;;;;;;5110093;27;20043;-43
2023/09/06 13:21:35;;;;;;;0.10;0.10;;;;;;;;;;5099143;28;20050;-43
2023/09/06 13:24:00;;;;;;;0.10;0.10;;;;;;;;;;5105576;28;20055;-43
2023/09/06 13:26:26;;;;;;;0.15;0.15;;;;;;;;;;5105133;28;20043;-42
2023/09/06 13:28:51;;;;;;;0.10;0.10;;;;;;;;;;5115141;28;20055;-45
2023/09/06 13:31:17;;;;;;;0.25;0.25;;;;;;;;;;5113048;27;20035;-43
2023/09/06 13:33:43;;;;;;;0.10;0.10;;;;;;;;;;5099759;28;20310;-44
2023/09/06 13:36:09;;;;;;;0.20;0.20;;;;;;;;;;5107890;28;20506;-42
2023/09/06 13:38:34;;;;;;;0.10;0.10;;;;;;;;;;5101500;27;20051;-43
2023/09/06 13:41:00;;;;;;;0.20;0.20;;;;;;;;;;5105558;28;20081;-42
2023/09/06 13:43:26;;;;;;;0.10;0.10;;;;;;;;;;5103928;28;20059;-43
2023/09/06 13:45:51;;;;;;;0.10;0.10;;;;;;;;;;5112168;28;20051;-42
2023/09/06 13:48:17;;;;;;;0.20;0.20;;;;;;;;;;5110275;28;20481;-43
2023/09/06 13:50:43;;;;;;;0.10;0.10;;;;;;;;;;5113749;28;20047;-42
2023/09/06 13:53:08;;;;;;;0.10;0.10;;;;;;;;;;5112564;28;20046;-44
2023/09/06 13:55:34;;;;;;;0.10;0.10;;;;;;;;;;5110204;28;20043;-42
2023/09/06 13:58:00;;;;;;;0.10;0.10;;;;;;;;;;5107721;28;20129;-44
2023/09/06 14:00:25;;;;;;;0.10;0.10;;;;;;;;;;5102805;28;20114;-46
2023/09/06 14:02:51;;;;;;;0.10;0.10;;;;;;;;;;5094500;28;20488;-42
2023/09/06 14:05:17;;;;;;;0.10;0.10;;;;;;;;;;5095259;28;20046;-42
2023/09/06 14:07:43;;;;;;;0.20;0.20;;;;;;;;;;5096299;28;20690;-43
2023/09/06 14:10:09;;;;;;;0.10;0.10;;;;;;;;;;5111073;27;20124;-43
2023/09/06 14:12:34;;;;;;;0.20;0.20;;;;;;;;;;5115131;28;20051;-42
2023/09/06 14:15:00;;;;;;;0.10;0.10;;;;;;;;;;5103286;28;20061;-42
2023/09/06 14:17:26;;;;;;;0.10;0.10;;;;;;;;;;5095921;28;20476;-42
2023/09/06 14:19:51;;;;;;;0.20;0.20;;;;;;;;;;5113414;27;20104;-43
2023/09/06 14:22:17;;;;;;;0.10;0.10;;;;;;;;;;5113741;28;20047;-43
2023/09/06 14:24:42;;;;;;;0.20;0.20;;;;;;;;;;5115344;28;20124;-42
2023/09/06 14:27:08;;;;;;;0.43;0.43;;;;;;;;;;5114677;28;20100;-43
2023/09/06 14:29:34;;;;;;;0.10;0.10;;;;;;;;;;5107885;28;20062;-42
2023/09/06 14:31:59;;;;;;;0.10;0.10;;;;;;;;;;5114749;28;20059;-43
2023/09/06 14:34:25;;;;;;;0.10;0.10;;;;;;;;;;5115207;28;20054;-42
2023/09/06 14:36:50;;;;;;;0.20;0.20;;;;;;;;;;5114880;28;20055;-43
2023/09/06 14:39:18;;;;;;;0.10;0.10;;;;;;;;;;5106868;28;20518;-44
2023/09/06 14:41:44;;;;;;;0.10;0.10;;;;;;;;;;5114482;28;20043;-42
2023/09/06 14:44:09;;;;;;;0.10;0.10;;;;;;;;;;5115275;28;20047;-43
2023/09/06 14:46:36;;;;;;;0.10;0.10;;;;;;;;;;5097116;27;20480;-43
2023/09/06 14:49:02;;;;;;;0.20;0.20;;;;;;;;;;5114917;27;20055;-43